sensor_id;sensor_type;location;lat;lon;timestamp;pressure;altitude;pressure_sealevel;temperature;humidity
58473;BME280;44775;51.564;5.460;2023-02-19T00:01:31;101539.06;;;9.85;100.00
58473;BME280;44775;51.564;5.460;2023-02-19T00:03:59;101530.50;;;9.81;100.00
58473;BME280;44775;51.564;5.460;2023-02-19T00:06:26;101539.34;;;9.82;100.00
58473;BME280;44775;51.564;5.460;2023-02-19T00:08:52;101533.66;;;9.67;100.00
58473;BME280;44775;51.564;5.460;2023-02-19T00:11:20;101526.06;;;9.72;100.00
58473;BME280;44775;51.564;5.460;2023-02-19T00:13:49;101537.16;;;9.67;100.00
58473;BME280;44775;51.564;5.460;2023-02-19T00:16:17;101528.63;;;9.64;100.00
58473;BME280;44775;51.564;5.460;2023-02-19T00:18:43;101514.41;;;9.73;100.00
58473;BME280;44775;51.564;5.460;2023-02-19T00:21:09;101532.09;;;9.74;100.00
58473;BME280;44775;51.564;5.460;2023-02-19T00:23:34;101543.34;;;9.68;100.00
58473;BME280;44775;51.564;5.460;2023-02-19T00:26:04;101540.53;;;9.69;100.00
58473;BME280;44775;51.564;5.460;2023-02-19T00:28:30;101534.13;;;9.62;100.00
58473;BME280;44775;51.564;5.460;2023-02-19T00:30:55;101538.91;;;9.59;100.00
58473;BME280;44775;51.564;5.460;2023-02-19T00:33:20;101539.88;;;9.58;100.00
58473;BME280;44775;51.564;5.460;2023-02-19T00:35:46;101541.56;;;9.59;100.00
58473;BME280;44775;51.564;5.460;2023-02-19T00:38:11;101547.59;;;9.61;100.00
58473;BME280;44775;51.564;5.460;2023-02-19T00:40:37;101538.91;;;9.59;100.00
58473;BME280;44775;51.564;5.460;2023-02-19T00:43:03;101529.91;;;9.60;100.00
58473;BME280;44775;51.564;5.460;2023-02-19T00:45:28;101539.25;;;9.74;100.00
58473;BME280;44775;51.564;5.460;2023-02-19T00:47:53;101543.47;;;9.76;100.00
58473;BME280;44775;51.564;5.460;2023-02-19T00:50:19;101543.78;;;9.63;100.00
58473;BME280;44775;51.564;5.460;2023-02-19T00:52:44;101537.47;;;9.64;100.00
58473;BME280;44775;51.564;5.460;2023-02-19T00:55:09;101551.78;;;9.73;100.00
58473;BME280;44775;51.564;5.460;2023-02-19T00:57:35;101547.97;;;9.76;100.00
58473;BME280;44775;51.564;5.460;2023-02-19T01:00:00;101552.59;;;9.74;100.00
58473;BME280;44775;51.564;5.460;2023-02-19T01:02:25;101554.28;;;9.75;100.00
58473;BME280;44775;51.564;5.460;2023-02-19T01:04:51;101550.38;;;9.69;100.00
58473;BME280;44775;51.564;5.460;2023-02-19T01:07:17;101552.59;;;9.74;100.00
58473;BME280;44775;51.564;5.460;2023-02-19T01:09:43;101556.84;;;9.66;100.00
58473;BME280;44775;51.564;5.460;2023-02-19T01:12:08;101558.53;;;9.67;100.00
58473;BME280;44775;51.564;5.460;2023-02-19T01:14:34;101563.84;;;9.67;100.00
58473;BME280;44775;51.564;5.460;2023-02-19T01:17:00;101561.63;;;9.63;100.00
58473;BME280;44775;51.564;5.460;2023-02-19T01:19:25;101554.03;;;9.58;100.00
58473;BME280;44775;51.564;5.460;2023-02-19T01:21:51;101560.19;;;9.68;100.00
58473;BME280;44775;51.564;5.460;2023-02-19T01:24:16;101566.13;;;9.62;100.00
58473;BME280;44775;51.564;5.460;2023-02-19T01:26:42;101573.53;;;9.68;100.00
58473;BME280;44775;51.564;5.460;2023-02-19T01:29:08;101579.88;;;9.67;100.00
58473;BME280;44775;51.564;5.460;2023-02-19T01:31:34;101582.53;;;9.67;100.00
58473;BME280;44775;51.564;5.460;2023-02-19T01:34:01;101585.91;;;9.69;100.00
58473;BME280;44775;51.564;5.460;2023-02-19T01:36:27;101571.47;;;9.62;100.00
58473;BME280;44775;51.564;5.460;2023-02-19T01:38:54;101582.72;;;9.56;100.00
58473;BME280;44775;51.564;5.460;2023-02-19T01:41:21;101582.16;;;9.62;100.00
58473;BME280;44775;51.564;5.460;2023-02-19T01:44:04;101581.69;;;9.67;100.00
58473;BME280;44775;51.564;5.460;2023-02-19T01:46:39;101576.06;;;9.70;100.00
58473;BME280;44775;51.564;5.460;2023-02-19T01:49:07;101586.50;;;9.63;100.00
58473;BME280;44775;51.564;5.460;2023-02-19T01:51:37;101590.25;;;9.70;100.00
58473;BME280;44775;51.564;5.460;2023-02-19T01:54:06;101593.22;;;9.58;100.00
58473;BME280;44775;51.564;5.460;2023-02-19T01:56:35;101586.19;;;9.66;100.00
58473;BME280;44775;51.564;5.460;2023-02-19T01:59:02;101582.00;;;9.54;100.00
58473;BME280;44775;51.564;5.460;2023-02-19T02:01:28;101581.03;;;9.55;100.00
58473;BME280;44775;51.564;5.460;2023-02-19T02:03:53;101577.50;;;9.55;100.00
58473;BME280;44775;51.564;5.460;2023-02-19T02:06:51;101573.88;;;9.56;100.00
58473;BME280;44775;51.564;5.460;2023-02-19T02:09:17;101575.75;;;9.83;100.00
58473;BME280;44775;51.564;5.460;2023-02-19T02:12:02;101571.19;;;9.65;100.00
58473;BME280;44775;51.564;5.460;2023-02-19T02:14:29;101578.78;;;9.60;100.00
58473;BME280;44775;51.564;5.460;2023-02-19T02:17:23;101580.41;;;9.71;100.00
58473;BME280;44775;51.564;5.460;2023-02-19T02:22:18;101590.56;;;9.58;100.00
58473;BME280;44775;51.564;5.460;2023-02-19T02:27:49;101582.28;;;9.51;100.00
58473;BME280;44775;51.564;5.460;2023-02-19T02:30:20;101586.06;;;9.58;100.00
58473;BME280;44775;51.564;5.460;2023-02-19T02:33:30;101583.28;;;9.60;100.00
58473;BME280;44775;51.564;5.460;2023-02-19T02:36:02;101581.16;;;9.54;100.00
58473;BME280;44775;51.564;5.460;2023-02-19T02:38:32;101579.59;;;9.61;100.00
58473;BME280;44775;51.564;5.460;2023-02-19T02:40:59;101584.38;;;9.57;100.00
58473;BME280;44775;51.564;5.460;2023-02-19T02:43:24;101581.44;;;9.60;100.00
58473;BME280;44775;51.564;5.460;2023-02-19T02:45:50;101587.91;;;9.58;100.00
58473;BME280;44775;51.564;5.460;2023-02-19T02:48:39;101591.00;;;9.53;100.00
58473;BME280;44775;51.564;5.460;2023-02-19T02:53:47;101596.75;;;9.58;100.00
58473;BME280;44775;51.564;5.460;2023-02-19T02:56:33;101596.19;;;9.55;100.00
58473;BME280;44775;51.564;5.460;2023-02-19T02:59:01;101594.22;;;9.66;100.00
58473;BME280;44775;51.564;5.460;2023-02-19T03:01:48;101598.44;;;9.59;100.00
58473;BME280;44775;51.564;5.460;2023-02-19T03:07:44;101602.97;;;9.49;100.00
58473;BME280;44775;51.564;5.460;2023-02-19T03:10:15;101602.97;;;9.39;100.00
58473;BME280;44775;51.564;5.460;2023-02-19T03:12:44;101601.72;;;9.24;100.00
58473;BME280;44775;51.564;5.460;2023-02-19T03:15:34;101603.41;;;9.15;100.00
58473;BME280;44775;51.564;5.460;2023-02-19T03:18:21;101606.34;;;9.12;100.00
58473;BME280;44775;51.564;5.460;2023-02-19T03:21:06;101612.25;;;9.06;100.00
58473;BME280;44775;51.564;5.460;2023-02-19T03:23:32;101608.88;;;9.14;100.00
58473;BME280;44775;51.564;5.460;2023-02-19T03:26:18;101621.50;;;9.12;100.00
58473;BME280;44775;51.564;5.460;2023-02-19T03:28:44;101609.16;;;9.20;100.00
58473;BME280;44775;51.564;5.460;2023-02-19T03:31:30;101612.25;;;9.16;100.00
58473;BME280;44775;51.564;5.460;2023-02-19T03:34:00;101614.47;;;9.11;100.00
58473;BME280;44775;51.564;5.460;2023-02-19T03:36:33;101610.97;;;9.10;100.00
58473;BME280;44775;51.564;5.460;2023-02-19T03:39:05;101620.66;;;9.02;100.00
58473;BME280;44775;51.564;5.460;2023-02-19T03:42:06;101623.47;;;9.10;100.00
58473;BME280;44775;51.564;5.460;2023-02-19T03:44:41;101632.19;;;9.02;100.00
58473;BME280;44775;51.564;5.460;2023-02-19T03:47:16;101631.03;;;9.14;100.00
58473;BME280;44775;51.564;5.460;2023-02-19T03:49:48;101627.25;;;9.07;100.00
58473;BME280;44775;51.564;5.460;2023-02-19T03:52:51;101631.19;;;9.03;100.00
58473;BME280;44775;51.564;5.460;2023-02-19T03:55:37;101641.56;;;9.06;100.00
58473;BME280;44775;51.564;5.460;2023-02-19T03:58:08;101648.72;;;9.06;100.00
58473;BME280;44775;51.564;5.460;2023-02-19T04:00:41;101648.72;;;9.06;100.00
58473;BME280;44775;51.564;5.460;2023-02-19T04:03:35;101644.53;;;9.13;100.00
58473;BME280;44775;51.564;5.460;2023-02-19T04:06:09;101656.56;;;9.07;100.00
58473;BME280;44775;51.564;5.460;2023-02-19T04:08:37;101656.16;;;9.02;100.00
58473;BME280;44775;51.564;5.460;2023-02-19T04:11:05;101657.69;;;9.14;100.00
58473;BME280;44775;51.564;5.460;2023-02-19T04:13:56;101668.97;;;9.18;100.00
58473;BME280;44775;51.564;5.460;2023-02-19T04:16:26;101674.56;;;9.25;100.00
58473;BME280;44775;51.564;5.460;2023-02-19T04:18:56;101679.59;;;9.28;100.00
58473;BME280;44775;51.564;5.460;2023-02-19T04:21:23;101674.28;;;9.18;100.00
58473;BME280;44775;51.564;5.460;2023-02-19T04:23:50;101673.13;;;9.11;100.00
58473;BME280;44775;51.564;5.460;2023-02-19T04:26:16;101674.28;;;9.18;100.00
58473;BME280;44775;51.564;5.460;2023-02-19T04:28:42;101681.03;;;9.22;100.00
58473;BME280;44775;51.564;5.460;2023-02-19T04:31:08;101679.34;;;9.11;100.00
58473;BME280;44775;51.564;5.460;2023-02-19T04:33:34;101678.19;;;9.14;100.00
58473;BME280;44775;51.564;5.460;2023-02-19T04:35:59;101687.34;;;9.11;100.00
58473;BME280;44775;51.564;5.460;2023-02-19T04:38:25;101693.22;;;9.05;100.00
58473;BME280;44775;51.564;5.460;2023-02-19T04:40:50;101696.31;;;9.10;100.00
58473;BME280;44775;51.564;5.460;2023-02-19T04:43:16;101703.19;;;9.13;100.00
58473;BME280;44775;51.564;5.460;2023-02-19T04:45:41;101703.19;;;9.13;100.00
58473;BME280;44775;51.564;5.460;2023-02-19T04:48:07;101706.41;;;9.16;100.00
58473;BME280;44775;51.564;5.460;2023-02-19T04:50:33;101717.75;;;8.99;100.00
58473;BME280;44775;51.564;5.460;2023-02-19T04:52:58;101708.91;;;8.98;100.00
58473;BME280;44775;51.564;5.460;2023-02-19T04:55:23;101713.56;;;9.06;100.00
58473;BME280;44775;51.564;5.460;2023-02-19T04:57:48;101721.25;;;8.99;100.00
58473;BME280;44775;51.564;5.460;2023-02-19T05:00:14;101732.22;;;9.06;100.00
58473;BME280;44775;51.564;5.460;2023-02-19T05:02:39;101739.94;;;8.99;100.00
58473;BME280;44775;51.564;5.460;2023-02-19T05:05:05;101748.66;;;9.11;100.00
58473;BME280;44775;51.564;5.460;2023-02-19T05:07:30;101743.84;;;8.95;100.00
58473;BME280;44775;51.564;5.460;2023-02-19T05:09:55;101758.72;;;8.98;100.00
58473;BME280;44775;51.564;5.460;2023-02-19T05:12:21;101751.09;;;8.84;100.00
58473;BME280;44775;51.564;5.460;2023-02-19T05:14:46;101753.34;;;8.79;100.00
58473;BME280;44775;51.564;5.460;2023-02-19T05:17:11;101751.91;;;8.74;100.00
58473;BME280;44775;51.564;5.460;2023-02-19T05:19:36;101760.59;;;8.77;100.00
58473;BME280;44775;51.564;5.460;2023-02-19T05:22:02;101759.19;;;8.72;100.00
58473;BME280;44775;51.564;5.460;2023-02-19T05:24:27;101771.69;;;8.72;100.00
58473;BME280;44775;51.564;5.460;2023-02-19T05:26:54;101765.25;;;8.74;100.00
58473;BME280;44775;51.564;5.460;2023-02-19T05:29:19;101769.28;;;8.69;100.00
58473;BME280;44775;51.564;5.460;2023-02-19T05:31:44;101769.13;;;8.61;100.00
58473;BME280;44775;51.564;5.460;2023-02-19T05:34:10;101764.88;;;8.58;100.00
58473;BME280;44775;51.564;5.460;2023-02-19T05:36:36;101763.06;;;8.59;100.00
58473;BME280;44775;51.564;5.460;2023-02-19T05:39:01;101768.72;;;8.65;100.00
58473;BME280;44775;51.564;5.460;2023-02-19T05:41:28;101772.88;;;8.58;100.00
58473;BME280;44775;51.564;5.460;2023-02-19T05:43:54;101777.31;;;8.48;100.00
58473;BME280;44775;51.564;5.460;2023-02-19T05:46:23;101780.41;;;8.53;100.00
58473;BME280;44775;51.564;5.460;2023-02-19T05:48:51;101778.41;;;8.45;100.00
58473;BME280;44775;51.564;5.460;2023-02-19T05:51:19;101789.91;;;8.46;100.00
58473;BME280;44775;51.564;5.460;2023-02-19T05:53:45;101775.28;;;8.40;100.00
58473;BME280;44775;51.564;5.460;2023-02-19T05:56:39;101780.81;;;8.48;100.00
58473;BME280;44775;51.564;5.460;2023-02-19T05:59:15;101777.63;;;8.34;100.00
58473;BME280;44775;51.564;5.460;2023-02-19T06:01:41;101778.72;;;8.31;100.00
58473;BME280;44775;51.564;5.460;2023-02-19T06:04:08;101774.19;;;8.22;100.00
58473;BME280;44775;51.564;5.460;2023-02-19T06:06:34;101774.75;;;8.25;100.00
58473;BME280;44775;51.564;5.460;2023-02-19T06:08:59;101768.84;;;8.22;100.00
58473;BME280;44775;51.564;5.460;2023-02-19T06:11:24;101769.53;;;8.14;100.00
58473;BME280;44775;51.564;5.460;2023-02-19T06:13:50;101782.63;;;8.06;100.00
58473;BME280;44775;51.564;5.460;2023-02-19T06:16:15;101779.50;;;8.01;100.00
58473;BME280;44775;51.564;5.460;2023-02-19T06:18:42;101785.50;;;8.14;100.00
58473;BME280;44775;51.564;5.460;2023-02-19T06:21:09;101782.94;;;8.13;100.00
58473;BME280;44775;51.564;5.460;2023-02-19T06:23:35;101798.59;;;8.06;100.00
58473;BME280;44775;51.564;5.460;2023-02-19T06:26:08;101796.06;;;8.04;100.00
58473;BME280;44775;51.564;5.460;2023-02-19T06:28:34;101797.16;;;8.02;100.00
58473;BME280;44775;51.564;5.460;2023-02-19T06:31:00;101795.00;;;7.96;100.00
58473;BME280;44775;51.564;5.460;2023-02-19T06:33:26;101804.91;;;8.05;100.00
58473;BME280;44775;51.564;5.460;2023-02-19T06:35:52;101805.72;;;8.05;100.00
58473;BME280;44775;51.564;5.460;2023-02-19T06:38:17;101812.88;;;8.05;100.00
58473;BME280;44775;51.564;5.460;2023-02-19T06:40:44;101820.94;;;8.15;100.00
58473;BME280;44775;51.564;5.460;2023-02-19T06:43:10;101826.91;;;8.07;100.00
58473;BME280;44775;51.564;5.460;2023-02-19T06:45:35;101833.44;;;8.03;100.00
58473;BME280;44775;51.564;5.460;2023-02-19T06:48:01;101829.94;;;8.02;100.00
58473;BME280;44775;51.564;5.460;2023-02-19T06:50:26;101829.59;;;7.96;100.00
58473;BME280;44775;51.564;5.460;2023-02-19T06:52:51;101840.09;;;8.09;100.00
58473;BME280;44775;51.564;5.460;2023-02-19T06:55:16;101844.22;;;8.01;100.00
58473;BME280;44775;51.564;5.460;2023-02-19T06:57:42;101840.00;;;7.99;100.00
58473;BME280;44775;51.564;5.460;2023-02-19T07:00:08;101839.50;;;8.05;100.00
58473;BME280;44775;51.564;5.460;2023-02-19T07:02:33;101845.66;;;8.05;100.00
58473;BME280;44775;51.564;5.460;2023-02-19T07:04:59;101849.06;;;8.28;100.00
58473;BME280;44775;51.564;5.460;2023-02-19T07:07:24;101843.00;;;8.26;100.00
58473;BME280;44775;51.564;5.460;2023-02-19T07:09:49;101856.72;;;8.22;100.00
58473;BME280;44775;51.564;5.460;2023-02-19T07:12:14;101853.81;;;8.25;100.00
58473;BME280;44775;51.564;5.460;2023-02-19T07:14:40;101858.16;;;8.26;100.00
58473;BME280;44775;51.564;5.460;2023-02-19T07:17:05;101867.47;;;8.32;100.00
58473;BME280;44775;51.564;5.460;2023-02-19T07:19:30;101870.22;;;8.30;100.00
58473;BME280;44775;51.564;5.460;2023-02-19T07:21:56;101872.19;;;8.28;100.00
58473;BME280;44775;51.564;5.460;2023-02-19T07:24:21;101866.66;;;8.20;100.00
58473;BME280;44775;51.564;5.460;2023-02-19T07:26:46;101881.63;;;8.32;100.00
58473;BME280;44775;51.564;5.460;2023-02-19T07:29:12;101890.59;;;8.31;100.00
58473;BME280;44775;51.564;5.460;2023-02-19T07:31:37;101899.81;;;8.27;100.00
58473;BME280;44775;51.564;5.460;2023-02-19T07:34:02;101908.63;;;8.27;100.00
58473;BME280;44775;51.564;5.460;2023-02-19T07:36:28;101912.53;;;8.23;100.00
58473;BME280;44775;51.564;5.460;2023-02-19T07:38:54;101910.97;;;8.21;100.00
58473;BME280;44775;51.564;5.460;2023-02-19T07:41:20;101909.09;;;8.33;100.00
58473;BME280;44775;51.564;5.460;2023-02-19T07:43:46;101916.50;;;8.29;100.00
58473;BME280;44775;51.564;5.460;2023-02-19T07:46:12;101917.91;;;8.33;100.00
58473;BME280;44775;51.564;5.460;2023-02-19T07:48:39;101927.72;;;8.33;100.00
58473;BME280;44775;51.564;5.460;2023-02-19T07:51:06;101929.09;;;8.27;100.00
58473;BME280;44775;51.564;5.460;2023-02-19T07:53:33;101942.75;;;8.34;100.00
58473;BME280;44775;51.564;5.460;2023-02-19T07:56:01;101941.06;;;8.44;100.00
58473;BME280;44775;51.564;5.460;2023-02-19T07:58:27;101951.72;;;8.44;100.00
58473;BME280;44775;51.564;5.460;2023-02-19T08:00:53;101957.28;;;8.41;100.00
58473;BME280;44775;51.564;5.460;2023-02-19T08:03:18;101960.16;;;8.49;100.00
58473;BME280;44775;51.564;5.460;2023-02-19T08:05:43;101959.56;;;8.45;100.00
58473;BME280;44775;51.564;5.460;2023-02-19T08:08:11;101962.16;;;8.57;100.00
58473;BME280;44775;51.564;5.460;2023-02-19T08:10:38;101970.69;;;8.50;100.00
58473;BME280;44775;51.564;5.460;2023-02-19T08:13:22;101968.13;;;8.49;100.00
58473;BME280;44775;51.564;5.460;2023-02-19T08:16:07;101981.47;;;8.49;100.00
58473;BME280;44775;51.564;5.460;2023-02-19T08:18:33;101977.09;;;8.48;100.00
58473;BME280;44775;51.564;5.460;2023-02-19T08:20:59;101979.44;;;8.41;100.00
58473;BME280;44775;51.564;5.460;2023-02-19T08:23:25;101973.97;;;8.43;100.00
58473;BME280;44775;51.564;5.460;2023-02-19T08:25:52;101989.84;;;8.44;100.00
58473;BME280;44775;51.564;5.460;2023-02-19T08:28:18;101985.09;;;8.48;100.00
58473;BME280;44775;51.564;5.460;2023-02-19T08:30:45;101996.94;;;8.55;100.00
58473;BME280;44775;51.564;5.460;2023-02-19T08:33:13;101990.13;;;8.62;100.00
58473;BME280;44775;51.564;5.460;2023-02-19T08:35:38;101996.31;;;8.84;100.00
58473;BME280;44775;51.564;5.460;2023-02-19T08:38:05;101999.13;;;8.82;100.00
58473;BME280;44775;51.564;5.460;2023-02-19T08:40:31;101994.88;;;8.80;100.00
58473;BME280;44775;51.564;5.460;2023-02-19T08:43:02;101990.38;;;8.80;100.00
58473;BME280;44775;51.564;5.460;2023-02-19T08:45:27;101996.06;;;8.87;100.00
58473;BME280;44775;51.564;5.460;2023-02-19T08:47:52;102002.03;;;8.79;100.00
58473;BME280;44775;51.564;5.460;2023-02-19T08:50:18;102002.94;;;8.89;100.00
58473;BME280;44775;51.564;5.460;2023-02-19T08:52:43;102000.47;;;8.77;100.00
58473;BME280;44775;51.564;5.460;2023-02-19T08:55:08;102003.47;;;8.83;100.00
58473;BME280;44775;51.564;5.460;2023-02-19T08:57:35;102006.00;;;8.85;100.00
58473;BME280;44775;51.564;5.460;2023-02-19T09:00:02;102011.84;;;8.79;100.00
58473;BME280;44775;51.564;5.460;2023-02-19T09:02:28;102020.25;;;8.95;100.00
58473;BME280;44775;51.564;5.460;2023-02-19T09:04:54;102024.47;;;8.97;100.00
58473;BME280;44775;51.564;5.460;2023-02-19T09:07:19;102025.13;;;9.11;100.00
58473;BME280;44775;51.564;5.460;2023-02-19T09:09:44;102024.66;;;9.27;100.00
58473;BME280;44775;51.564;5.460;2023-02-19T09:12:11;102017.88;;;9.43;100.00
58473;BME280;44775;51.564;5.460;2023-02-19T09:14:37;102030.19;;;9.56;100.00
58473;BME280;44775;51.564;5.460;2023-02-19T09:17:04;102024.31;;;9.62;100.00
58473;BME280;44775;51.564;5.460;2023-02-19T09:19:30;102018.41;;;9.68;100.00
58473;BME280;44775;51.564;5.460;2023-02-19T09:21:55;102024.56;;;9.89;100.00
58473;BME280;44775;51.564;5.460;2023-02-19T09:24:21;102027.81;;;9.93;100.00
58473;BME280;44775;51.564;5.460;2023-02-19T09:26:51;102017.41;;;10.00;100.00
58473;BME280;44775;51.564;5.460;2023-02-19T09:29:17;102027.53;;;9.96;100.00
58473;BME280;44775;51.564;5.460;2023-02-19T09:31:43;102024.25;;;9.83;100.00
58473;BME280;44775;51.564;5.460;2023-02-19T09:34:09;102043.22;;;9.80;100.00
58473;BME280;44775;51.564;5.460;2023-02-19T09:36:36;102040.44;;;9.91;100.00
58473;BME280;44775;51.564;5.460;2023-02-19T09:39:01;102030.88;;;9.98;100.00
58473;BME280;44775;51.564;5.460;2023-02-19T09:41:30;102041.78;;;10.16;100.00
58473;BME280;44775;51.564;5.460;2023-02-19T09:43:57;102040.00;;;10.26;100.00
58473;BME280;44775;51.564;5.460;2023-02-19T09:46:39;102037.50;;;10.34;100.00
58473;BME280;44775;51.564;5.460;2023-02-19T09:49:12;102033.56;;;10.38;100.00
58473;BME280;44775;51.564;5.460;2023-02-19T09:51:38;102051.97;;;10.42;100.00
58473;BME280;44775;51.564;5.460;2023-02-19T09:54:08;102078.56;;;10.53;100.00
58473;BME280;44775;51.564;5.460;2023-02-19T09:56:37;102088.16;;;10.65;100.00
58473;BME280;44775;51.564;5.460;2023-02-19T09:59:03;102093.53;;;10.65;100.00
58473;BME280;44775;51.564;5.460;2023-02-19T10:01:31;102096.75;;;10.69;100.00
58473;BME280;44775;51.564;5.460;2023-02-19T10:03:58;102102.53;;;10.64;100.00
58473;BME280;44775;51.564;5.460;2023-02-19T10:06:26;102096.06;;;10.67;100.00
58473;BME280;44775;51.564;5.460;2023-02-19T10:11:42;102122.94;;;10.75;100.00
58473;BME280;44775;51.564;5.460;2023-02-19T10:14:14;102115.66;;;10.77;100.00
58473;BME280;44775;51.564;5.460;2023-02-19T10:16:44;102115.34;;;10.80;100.00
58473;BME280;44775;51.564;5.460;2023-02-19T10:19:13;102118.16;;;10.69;100.00
58473;BME280;44775;51.564;5.460;2023-02-19T10:21:40;102128.84;;;10.69;100.00
58473;BME280;44775;51.564;5.460;2023-02-19T10:24:06;102135.44;;;10.64;100.00
58473;BME280;44775;51.564;5.460;2023-02-19T10:26:32;102139.13;;;10.63;100.00
58473;BME280;44775;51.564;5.460;2023-02-19T10:29:04;102128.16;;;10.86;100.00
58473;BME280;44775;51.564;5.460;2023-02-19T10:31:30;102134.34;;;10.86;100.00
58473;BME280;44775;51.564;5.460;2023-02-19T10:33:57;102143.78;;;10.81;100.00
58473;BME280;44775;51.564;5.460;2023-02-19T10:36:29;102156.88;;;11.03;100.00
58473;BME280;44775;51.564;5.460;2023-02-19T10:38:56;102154.38;;;11.21;100.00
58473;BME280;44775;51.564;5.460;2023-02-19T10:41:23;102172.81;;;11.15;100.00
58473;BME280;44775;51.564;5.460;2023-02-19T10:46:27;102177.81;;;10.79;100.00
58473;BME280;44775;51.564;5.460;2023-02-19T10:48:57;102176.28;;;10.76;100.00
58473;BME280;44775;51.564;5.460;2023-02-19T10:51:32;102172.16;;;10.62;100.00
58473;BME280;44775;51.564;5.460;2023-02-19T10:56:28;102187.94;;;10.66;100.00
58473;BME280;44775;51.564;5.460;2023-02-19T10:59:14;102177.88;;;10.48;100.00
58473;BME280;44775;51.564;5.460;2023-02-19T11:02:01;102185.13;;;10.27;100.00
58473;BME280;44775;51.564;5.460;2023-02-19T11:04:32;102185.34;;;10.24;100.00
58473;BME280;44775;51.564;5.460;2023-02-19T11:07:22;102183.63;;;10.13;100.00
58473;BME280;44775;51.564;5.460;2023-02-19T11:09:49;102177.50;;;10.01;100.00
58473;BME280;44775;51.564;5.460;2023-02-19T11:12:23;102184.28;;;10.05;100.00
58473;BME280;44775;51.564;5.460;2023-02-19T11:14:50;102186.28;;;10.13;100.00
58473;BME280;44775;51.564;5.460;2023-02-19T11:17:27;102185.28;;;10.35;100.00
58473;BME280;44775;51.564;5.460;2023-02-19T11:19:58;102186.75;;;10.49;100.00
58473;BME280;44775;51.564;5.460;2023-02-19T11:22:32;102175.41;;;10.56;100.00
58473;BME280;44775;51.564;5.460;2023-02-19T11:28:02;102162.34;;;10.82;100.00
58473;BME280;44775;51.564;5.460;2023-02-19T11:38:41;102163.09;;;11.52;100.00
58473;BME280;44775;51.564;5.460;2023-02-19T11:43:46;102165.06;;;11.50;100.00
58473;BME280;44775;51.564;5.460;2023-02-19T11:52:34;102169.16;;;11.16;100.00
58473;BME280;44775;51.564;5.460;2023-02-19T11:55:14;102176.19;;;10.97;100.00
58473;BME280;44775;51.564;5.460;2023-02-19T11:57:48;102172.19;;;10.72;100.00
58473;BME280;44775;51.564;5.460;2023-02-19T12:00:26;102167.94;;;10.60;100.00
58473;BME280;44775;51.564;5.460;2023-02-19T12:06:04;102175.56;;;10.64;100.00
58473;BME280;44775;51.564;5.460;2023-02-19T12:11:40;102170.84;;;11.07;100.00
58473;BME280;44775;51.564;5.460;2023-02-19T12:20:16;102162.94;;;11.54;100.00
58473;BME280;44775;51.564;5.460;2023-02-19T12:25:26;102162.25;;;11.23;100.00
58473;BME280;44775;51.564;5.460;2023-02-19T12:36:32;102181.38;;;11.76;100.00
58473;BME280;44775;51.564;5.460;2023-02-19T12:42:16;102177.91;;;12.50;96.98
58473;BME280;44775;51.564;5.460;2023-02-19T12:44:57;102170.59;;;12.70;93.76
58473;BME280;44775;51.564;5.460;2023-02-19T12:47:30;102181.47;;;12.41;94.04
58473;BME280;44775;51.564;5.460;2023-02-19T12:50:20;102187.31;;;12.27;94.20
58473;BME280;44775;51.564;5.460;2023-02-19T12:52:54;102185.41;;;12.10;94.37
58473;BME280;44775;51.564;5.460;2023-02-19T12:55:29;102183.59;;;12.00;96.31
58473;BME280;44775;51.564;5.460;2023-02-19T12:57:57;102180.56;;;11.86;95.05
58473;BME280;44775;51.564;5.460;2023-02-19T13:03:13;102185.06;;;11.85;96.28
58473;BME280;44775;51.564;5.460;2023-02-19T13:06:10;102187.00;;;11.73;97.52
58473;BME280;44775;51.564;5.460;2023-02-19T13:08:52;102196.88;;;11.73;96.25
58473;BME280;44775;51.564;5.460;2023-02-19T13:11:26;102206.75;;;11.63;93.84
58473;BME280;44775;51.564;5.460;2023-02-19T13:13:59;102197.91;;;11.52;97.88
58473;BME280;44775;51.564;5.460;2023-02-19T13:16:28;102204.81;;;11.55;98.24
58473;BME280;44775;51.564;5.460;2023-02-19T13:19:04;102214.22;;;11.49;95.25
58473;BME280;44775;51.564;5.460;2023-02-19T13:21:35;102216.06;;;11.39;95.41
58473;BME280;44775;51.564;5.460;2023-02-19T13:24:25;102208.75;;;11.41;95.58
58473;BME280;44775;51.564;5.460;2023-02-19T13:29:32;102221.69;;;11.36;98.09
58473;BME280;44775;51.564;5.460;2023-02-19T13:37:34;102231.84;;;11.32;93.66
58473;BME280;44775;51.564;5.460;2023-02-19T13:40:05;102241.13;;;11.19;95.28
58473;BME280;44775;51.564;5.460;2023-02-19T13:42:33;102236.31;;;11.13;95.96
58473;BME280;44775;51.564;5.460;2023-02-19T13:45:00;102244.06;;;11.16;95.77
58473;BME280;44775;51.564;5.460;2023-02-19T13:47:47;102242.25;;;11.26;95.38
58473;BME280;44775;51.564;5.460;2023-02-19T13:50:32;102252.31;;;10.93;98.59
58473;BME280;44775;51.564;5.460;2023-02-19T13:53:00;102254.03;;;10.54;98.88
58473;BME280;44775;51.564;5.460;2023-02-19T14:00:58;102273.72;;;10.32;100.00
58473;BME280;44775;51.564;5.460;2023-02-19T14:06:06;102273.00;;;10.09;100.00
58473;BME280;44775;51.564;5.460;2023-02-19T14:11:14;102270.16;;;9.68;100.00
58473;BME280;44775;51.564;5.460;2023-02-19T14:19:01;102289.53;;;9.50;100.00
58473;BME280;44775;51.564;5.460;2023-02-19T14:21:36;102289.78;;;9.46;100.00
58473;BME280;44775;51.564;5.460;2023-02-19T14:24:02;102286.66;;;9.30;100.00
58473;BME280;44775;51.564;5.460;2023-02-19T14:26:30;102278.91;;;9.27;100.00
58473;BME280;44775;51.564;5.460;2023-02-19T14:28:57;102285.13;;;9.16;100.00
58473;BME280;44775;51.564;5.460;2023-02-19T14:31:31;102288.53;;;9.18;100.00
58473;BME280;44775;51.564;5.460;2023-02-19T14:34:18;102285.75;;;9.09;100.00